Isabella — 9HSL7 — position and weather

sailwx.info

Track history (hours):
 
Tides and Currents Weather Stations Pressure Air Temp Water Temp Dewpoint Dewpoint Depression Visibility Wind Speed Wind Dir Waves Ship Positions

Isabella

Last reported at 2014-Nov-19 11:33 UTC. Time now 2014-Nov-23 07:29 UTC.
Position N 41°16' E 029°08'.

Length 244 m; draft 12.7 m.

Type: Tanker. MMSI: 215545000.

Date/timePositionNaut miles runAvg speedWind from/ knotsBaromVisibWave heightAir tempDewpointWater temp
2014-Nov-19 11:33N 41°16' E 029°08'12 5.5
2014-Nov-19 09:20N 41°27' E 029°16'4 0.7
2014-Nov-19 03:27N 41°27' E 029°11'5 0.7
2014-Nov-18 19:28N 41°26' E 029°17'1111.9
2014-Nov-18 18:33N 41°26' E 029°32'  
2014-Nov-10 12:09N 42°27' E 035°19'3311.1
2014-Nov-10 09:13N 42°23' E 034°35'1011.4
2014-Nov-10 08:21N 42°21' E 034°21'1011.7
2014-Nov-10 07:28N 42°20' E 034°08'1111.3
2014-Nov-10 06:32N 42°19' E 033°53'1111.3
2014-Nov-10 05:34N 42°19' E 033°39'18210.6
2014-Nov-09 12:25N 41°41' E 029°39'910.3
2014-Nov-09 11:33N 41°34' E 029°32'  
Track history (hours):
 
Tides and Currents Weather Stations Pressure Air Temp Water Temp Dewpoint Dewpoint Depression Visibility Wind Speed Wind Dir Waves Ship Positions

Isabella

Last reported at 2014-Nov-19 11:33 UTC. Time now 2014-Nov-23 07:29 UTC.
Position N 41°16' E 029°08'.

Length 244 m; draft 12.7 m.

Type: Tanker. MMSI: 215545000.

Date/timePositionNaut miles runAvg speedWind from/ knotsBaromVisibWave heightAir tempDewpointWater temp
2014-Nov-19 11:33N 41°16' E 029°08'12 5.5
2014-Nov-19 09:20N 41°27' E 029°16'4 0.7
2014-Nov-19 03:27N 41°27' E 029°11'5 0.7
2014-Nov-18 19:28N 41°26' E 029°17'1111.9
2014-Nov-18 18:33N 41°26' E 029°32'  
2014-Nov-10 12:09N 42°27' E 035°19'3311.1
2014-Nov-10 09:13N 42°23' E 034°35'1011.4
2014-Nov-10 08:21N 42°21' E 034°21'1011.7
2014-Nov-10 07:28N 42°20' E 034°08'1111.3
2014-Nov-10 06:32N 42°19' E 033°53'1111.3
2014-Nov-10 05:34N 42°19' E 033°39'18210.6
2014-Nov-09 12:25N 41°41' E 029°39'910.3
2014-Nov-09 11:33N 41°34' E 029°32'  

Dump ship's entire track history